createdAt,value
2018-10-01T00:00:20.130Z,2.97
2018-10-01T00:01:25.861Z,2.57
2018-10-01T00:02:31.449Z,3.33
2018-10-01T00:03:36.904Z,2.60
2018-10-01T00:04:42.348Z,3.13
2018-10-01T00:05:47.812Z,2.70
2018-10-01T00:06:53.253Z,3.17
2018-10-01T00:07:58.720Z,2.30
2018-10-01T00:09:05.935Z,4.00
2018-10-01T00:10:11.531Z,3.03
2018-10-01T00:11:17.025Z,3.00
2018-10-01T00:12:22.537Z,3.30
2018-10-01T00:13:28.433Z,2.33
2018-10-01T00:14:33.882Z,2.90
2018-10-01T00:15:39.348Z,3.20
2018-10-01T00:16:44.761Z,3.53
2018-10-01T00:17:50.285Z,2.90
2018-10-01T00:18:55.886Z,2.77
2018-10-01T00:20:06.587Z,2.60
2018-10-01T00:21:17.171Z,2.37
2018-10-01T00:22:27.833Z,2.30
2018-10-01T00:23:33.604Z,2.47
2018-10-01T00:24:39.029Z,2.57
2018-10-01T00:25:44.630Z,3.03
2018-10-01T00:26:50.189Z,3.10
2018-10-01T00:27:55.675Z,2.90
2018-10-01T00:29:01.217Z,2.10
2018-10-01T00:30:06.765Z,2.77
2018-10-01T00:31:12.157Z,2.63
2018-10-01T00:32:17.597Z,2.53
2018-10-01T00:33:23.080Z,2.90
2018-10-01T00:34:28.494Z,2.33
2018-10-01T00:35:33.898Z,2.50
2018-10-01T00:36:39.466Z,2.57
2018-10-01T00:37:44.986Z,2.47
2018-10-01T00:38:50.457Z,2.50
2018-10-01T00:39:55.930Z,3.40
2018-10-01T00:41:01.454Z,3.20
2018-10-01T00:42:06.909Z,2.80
2018-10-01T00:43:12.434Z,2.50
2018-10-01T00:44:17.963Z,2.40
2018-10-01T00:45:23.454Z,2.97
2018-10-01T00:46:29.226Z,3.37
2018-10-01T00:47:34.632Z,2.60
2018-10-01T00:48:40.073Z,3.17
2018-10-01T00:49:45.515Z,3.13
2018-10-01T00:50:50.955Z,2.97
2018-10-01T00:51:56.710Z,3.07
2018-10-01T00:53:02.217Z,2.80
2018-10-01T00:54:08.201Z,2.53
2018-10-01T00:55:13.805Z,3.20
2018-10-01T00:56:19.312Z,4.20
2018-10-01T00:57:25.232Z,3.00
2018-10-01T00:58:30.674Z,2.40
2018-10-01T00:59:36.118Z,2.57
2018-10-01T01:00:41.563Z,2.87
2018-10-01T01:01:46.997Z,2.57
2018-10-01T01:02:52.565Z,3.20
2018-10-01T01:03:58.031Z,2.60
2018-10-01T01:05:03.579Z,2.40
2018-10-01T01:06:09.170Z,3.03
2018-10-01T01:07:14.734Z,3.00
2018-10-01T01:08:20.282Z,2.47
2018-10-01T01:09:25.855Z,2.50
2018-10-01T01:10:31.398Z,2.10
2018-10-01T01:11:36.984Z,2.63
2018-10-01T01:12:42.597Z,2.70
2018-10-01T01:13:48.586Z,2.60
2018-10-01T01:14:54.078Z,2.23
2018-10-01T01:15:59.529Z,2.73
2018-10-01T01:17:04.961Z,2.30
2018-10-01T01:18:10.495Z,2.20
2018-10-01T01:19:15.913Z,2.27
2018-10-01T01:20:21.458Z,2.60
2018-10-01T01:21:27.001Z,2.10
2018-10-01T01:22:32.486Z,2.40
2018-10-01T01:23:37.996Z,2.47
2018-10-01T01:24:43.685Z,2.50
2018-10-01T01:25:49.353Z,2.60
2018-10-01T01:26:54.961Z,3.07
2018-10-01T01:28:00.553Z,2.00
2018-10-01T01:29:06.208Z,2.53
2018-10-01T01:30:11.685Z,2.27
2018-10-01T01:31:17.197Z,2.80
2018-10-01T01:32:22.780Z,2.33
2018-10-01T01:33:28.257Z,1.60
2018-10-01T01:34:33.674Z,2.20
2018-10-01T01:35:39.186Z,2.77
2018-10-01T01:36:44.938Z,2.67
2018-10-01T01:37:50.735Z,2.00
2018-10-01T01:38:56.160Z,2.50
2018-10-01T01:40:01.608Z,1.50
2018-10-01T01:41:07.496Z,1.93
2018-10-01T01:42:12.998Z,1.87
2018-10-01T01:43:18.567Z,2.30
2018-10-01T01:44:24.063Z,2.23
2018-10-01T01:45:29.468Z,2.50
2018-10-01T01:46:34.943Z,1.70
2018-10-01T01:47:40.415Z,1.57
2018-10-01T01:48:45.925Z,2.10
2018-10-01T01:49:51.354Z,3.17
2018-10-01T01:50:57.044Z,2.33
2018-10-01T01:52:02.584Z,2.13
2018-10-01T01:53:10.404Z,2.07
2018-10-01T01:54:15.820Z,1.63
2018-10-01T01:55:21.363Z,2.10
2018-10-01T01:56:26.810Z,1.67
2018-10-01T01:57:32.252Z,2.00
2018-10-01T01:58:37.986Z,2.20
2018-10-01T01:59:43.426Z,2.90
2018-10-01T02:00:48.905Z,1.53
2018-10-01T02:01:54.375Z,1.97
2018-10-01T02:02:59.791Z,2.30
2018-10-01T02:04:05.233Z,2.00
2018-10-01T02:05:10.704Z,1.80
2018-10-01T02:06:16.237Z,2.13
2018-10-01T02:07:21.911Z,2.20
2018-10-01T02:08:27.618Z,2.50
2018-10-01T02:09:33.085Z,2.10
2018-10-01T02:10:38.658Z,2.13
2018-10-01T02:11:44.234Z,2.77
2018-10-01T02:12:49.676Z,1.57
2018-10-01T02:13:55.125Z,2.10
2018-10-01T02:15:00.701Z,2.20
2018-10-01T02:16:06.277Z,2.23
2018-10-01T02:17:11.865Z,1.97
2018-10-01T02:18:17.361Z,2.10
2018-10-01T02:19:22.902Z,2.23
2018-10-01T02:20:28.368Z,1.70
2018-10-01T02:21:33.849Z,2.20
2018-10-01T02:22:39.325Z,2.07
2018-10-01T02:23:44.756Z,2.57
2018-10-01T02:24:50.348Z,1.80
2018-10-01T02:25:55.922Z,1.83
2018-10-01T02:27:01.426Z,1.77
2018-10-01T02:28:07.435Z,2.03
2018-10-01T02:29:13.004Z,1.93
2018-10-01T02:30:18.588Z,2.00
2018-10-01T02:31:24.126Z,2.10
2018-10-01T02:32:29.623Z,1.70
2018-10-01T02:33:35.100Z,1.73
2018-10-01T02:34:40.959Z,1.77
2018-10-01T02:35:46.429Z,2.60
2018-10-01T02:36:51.927Z,2.00
2018-10-01T02:37:57.352Z,2.13
2018-10-01T02:39:02.947Z,1.93
2018-10-01T02:40:08.779Z,2.03
2018-10-01T02:41:14.246Z,1.67
2018-10-01T02:42:19.729Z,1.20
2018-10-01T02:43:25.185Z,1.63
2018-10-01T02:44:30.649Z,1.97
2018-10-01T02:45:36.117Z,1.90
2018-10-01T02:46:41.548Z,1.73
2018-10-01T02:47:47.105Z,1.37
2018-10-01T02:48:52.522Z,2.00
2018-10-01T02:49:57.953Z,2.17
2018-10-01T02:51:03.566Z,1.57
2018-10-01T02:52:14.114Z,1.60
2018-10-01T02:53:24.806Z,1.90
2018-10-01T02:54:32.073Z,1.83
2018-10-01T02:55:37.481Z,2.77
2018-10-01T02:56:43.061Z,1.90
2018-10-01T02:57:48.513Z,2.17
2018-10-01T02:58:53.954Z,2.27
2018-10-01T02:59:59.353Z,1.70
2018-10-01T03:01:04.830Z,1.83
2018-10-01T03:02:10.378Z,1.37
2018-10-01T03:03:15.811Z,1.73
2018-10-01T03:04:21.273Z,1.90
2018-10-01T03:05:26.757Z,1.40
2018-10-01T03:06:32.184Z,1.53
2018-10-01T03:07:37.997Z,1.17
2018-10-01T03:08:43.454Z,1.50
2018-10-01T03:09:48.927Z,1.27
2018-10-01T03:10:54.444Z,2.00
2018-10-01T03:11:59.917Z,2.33
2018-10-01T03:13:05.441Z,2.10
2018-10-01T03:14:11.609Z,1.63
2018-10-01T03:15:17.482Z,1.47
2018-10-01T03:16:22.946Z,1.90
2018-10-01T03:17:28.368Z,1.67
2018-10-01T03:18:33.925Z,1.90
2018-10-01T03:19:39.395Z,1.10
2018-10-01T03:20:45.126Z,1.63
2018-10-01T03:21:50.690Z,1.30
2018-10-01T03:22:56.265Z,1.90
2018-10-01T03:24:01.773Z,2.20
2018-10-01T03:25:07.594Z,1.30
2018-10-01T03:26:13.045Z,1.80
2018-10-01T03:27:18.505Z,1.30
2018-10-01T03:28:23.927Z,1.23
2018-10-01T03:29:29.408Z,1.40
2018-10-01T03:30:34.930Z,1.57
2018-10-01T03:31:40.385Z,1.37
2018-10-01T03:32:45.846Z,1.50
2018-10-01T03:33:51.280Z,1.30
2018-10-01T03:34:56.681Z,2.30
2018-10-01T03:36:02.110Z,1.30
2018-10-01T03:37:07.522Z,1.83
2018-10-01T03:38:13.053Z,1.27
2018-10-01T03:39:18.492Z,2.27
2018-10-01T03:40:24.129Z,1.40
2018-10-01T03:41:29.683Z,1.47
2018-10-01T03:42:35.522Z,1.43
2018-10-01T03:43:40.984Z,2.13
2018-10-01T03:44:46.469Z,1.60
2018-10-01T03:45:51.916Z,1.33
2018-10-01T03:46:57.336Z,1.27
2018-10-01T03:48:02.877Z,1.40
2018-10-01T03:49:08.434Z,1.93
2018-10-01T03:50:13.865Z,1.43
2018-10-01T03:51:19.317Z,1.40
2018-10-01T03:52:24.765Z,1.30
2018-10-01T03:53:30.351Z,1.40
2018-10-01T03:54:35.757Z,1.73
2018-10-01T03:55:41.339Z,1.77
2018-10-01T03:56:46.775Z,1.40
2018-10-01T03:57:52.202Z,1.17
2018-10-01T03:58:57.747Z,1.23
2018-10-01T04:00:03.791Z,1.60
2018-10-01T04:01:09.279Z,1.57
2018-10-01T04:02:14.747Z,1.63
2018-10-01T04:03:20.189Z,1.30
2018-10-01T04:04:26.010Z,2.07
2018-10-01T04:05:31.542Z,1.40
2018-10-01T04:06:36.994Z,1.80
2018-10-01T04:07:42.652Z,1.40
2018-10-01T04:08:48.166Z,1.67
2018-10-01T04:09:53.597Z,1.83
2018-10-01T04:10:59.098Z,1.77
2018-10-01T04:12:04.658Z,1.60
2018-10-01T04:13:10.064Z,1.97
2018-10-01T04:14:15.488Z,1.43
2018-10-01T04:15:20.950Z,1.40
2018-10-01T04:16:26.508Z,1.30
2018-10-01T04:17:31.930Z,1.33
2018-10-01T04:18:37.396Z,1.57
2018-10-01T04:19:42.917Z,1.03
2018-10-01T04:20:48.338Z,1.37
2018-10-01T04:21:53.968Z,2.00
2018-10-01T04:22:59.428Z,1.67
2018-10-01T04:24:04.867Z,1.40
2018-10-01T04:25:11.485Z,1.80
2018-10-01T04:26:17.009Z,1.00
2018-10-01T04:27:22.485Z,1.43
2018-10-01T04:28:27.871Z,1.10
2018-10-01T04:29:33.306Z,1.97
2018-10-01T04:30:38.801Z,1.33
2018-10-01T04:31:45.600Z,1.40
2018-10-01T04:32:51.074Z,1.60
2018-10-01T04:33:56.634Z,1.80
2018-10-01T04:35:02.072Z,0.93
2018-10-01T04:36:07.568Z,1.47
2018-10-01T04:37:13.041Z,1.10
2018-10-01T04:38:18.451Z,1.20
2018-10-01T04:39:24.005Z,1.10
2018-10-01T04:40:29.419Z,1.30
2018-10-01T04:41:34.956Z,1.03
2018-10-01T04:42:40.373Z,1.27
2018-10-01T04:43:45.893Z,1.20
2018-10-01T04:44:51.489Z,1.30
2018-10-01T04:45:56.991Z,1.00
2018-10-01T04:47:02.474Z,1.27
2018-10-01T04:48:07.953Z,1.20
2018-10-01T04:49:13.397Z,1.40
2018-10-01T04:50:18.965Z,1.23
2018-10-01T04:51:24.433Z,1.40
2018-10-01T04:52:29.903Z,1.20
2018-10-01T04:53:35.633Z,1.93
2018-10-01T04:54:41.074Z,1.43
2018-10-01T04:55:46.505Z,1.33
2018-10-01T04:56:52.013Z,1.40
2018-10-01T04:57:57.544Z,1.30
2018-10-01T04:59:03.348Z,1.80
2018-10-01T05:00:10.057Z,1.10
2018-10-01T05:01:15.498Z,1.53
2018-10-01T05:02:20.956Z,1.10
2018-10-01T05:03:26.389Z,1.20
2018-10-01T05:04:31.850Z,2.37
2018-10-01T05:05:37.295Z,1.30
2018-10-01T05:06:42.895Z,0.90
2018-10-01T05:07:48.300Z,0.67
2018-10-01T05:08:53.738Z,1.70
2018-10-01T05:09:59.197Z,1.50
2018-10-01T05:11:04.766Z,1.27
2018-10-01T05:12:10.306Z,1.53
2018-10-01T05:13:15.748Z,1.30
2018-10-01T05:14:21.321Z,1.20
2018-10-01T05:15:26.748Z,1.20
2018-10-01T05:16:32.245Z,1.97
2018-10-01T05:17:37.988Z,1.70
2018-10-01T05:18:43.357Z,1.60
2018-10-01T05:19:48.804Z,1.27
2018-10-01T05:20:54.258Z,1.27
2018-10-01T05:21:59.688Z,1.70
2018-10-01T05:23:05.196Z,1.40
2018-10-01T05:24:10.917Z,1.00
2018-10-01T05:25:16.441Z,0.97
2018-10-01T05:26:22.039Z,1.40
2018-10-01T05:27:27.821Z,1.30
2018-10-01T05:28:33.636Z,1.30
2018-10-01T05:29:39.053Z,0.90
2018-10-01T05:30:44.628Z,1.17
2018-10-01T05:31:50.309Z,1.20
2018-10-01T05:32:55.801Z,1.23
2018-10-01T05:34:01.257Z,1.50
2018-10-01T05:35:06.762Z,1.30
2018-10-01T05:36:12.233Z,1.40
2018-10-01T05:37:18.377Z,1.47
2018-10-01T05:38:23.820Z,1.30
2018-10-01T05:39:29.320Z,1.40
2018-10-01T05:40:34.902Z,2.07
2018-10-01T05:41:40.296Z,1.20
2018-10-01T05:42:45.911Z,2.70
2018-10-01T05:43:51.434Z,1.63
2018-10-01T05:44:56.970Z,1.70
2018-10-01T05:46:02.481Z,1.50
2018-10-01T05:47:08.036Z,1.30
2018-10-01T05:48:13.545Z,1.47
2018-10-01T05:49:19.155Z,1.60
2018-10-01T05:50:24.659Z,1.50
2018-10-01T05:51:30.456Z,1.60
2018-10-01T05:52:35.944Z,1.40
2018-10-01T05:53:41.379Z,1.20
2018-10-01T05:54:46.801Z,1.57
2018-10-01T05:55:52.286Z,1.80
2018-10-01T05:56:57.755Z,1.30
2018-10-01T05:58:03.270Z,1.10
2018-10-01T05:59:08.773Z,1.30
2018-10-01T06:00:14.421Z,1.57
2018-10-01T06:01:19.984Z,1.50
2018-10-01T06:02:25.848Z,1.10
2018-10-01T06:03:31.516Z,1.30
2018-10-01T06:04:37.033Z,1.40
2018-10-01T06:05:42.422Z,1.73
2018-10-01T06:06:47.879Z,1.30
2018-10-01T06:07:53.385Z,1.20
2018-10-01T06:08:58.933Z,1.40
2018-10-01T06:10:04.498Z,2.30
2018-10-01T06:11:10.003Z,1.00
2018-10-01T06:12:15.461Z,1.97
2018-10-01T06:13:20.962Z,1.23
2018-10-01T06:14:26.592Z,1.63
2018-10-01T06:15:32.088Z,1.13
2018-10-01T06:16:37.540Z,1.43
2018-10-01T06:17:42.969Z,1.70
2018-10-01T06:18:48.405Z,1.07
2018-10-01T06:19:53.942Z,1.40
2018-10-01T06:20:59.425Z,1.30
2018-10-01T06:22:04.890Z,1.50
2018-10-01T06:23:10.564Z,1.20
2018-10-01T06:24:15.999Z,1.30
2018-10-01T06:25:22.057Z,0.90
2018-10-01T06:26:27.928Z,1.60
2018-10-01T06:27:33.455Z,1.83
2018-10-01T06:28:38.938Z,1.40
2018-10-01T06:29:44.375Z,1.73
2018-10-01T06:30:49.819Z,1.47
2018-10-01T06:31:55.373Z,1.87
2018-10-01T06:33:01.045Z,2.10
2018-10-01T06:34:06.490Z,1.60
2018-10-01T06:35:11.965Z,1.90
2018-10-01T06:36:17.408Z,1.67
2018-10-01T06:37:23.088Z,1.60
2018-10-01T06:38:28.494Z,1.70
2018-10-01T06:39:33.958Z,1.40
2018-10-01T06:40:39.489Z,1.63
2018-10-01T06:41:45.009Z,2.10
2018-10-01T06:42:50.401Z,1.30
2018-10-01T06:43:56.086Z,1.57
2018-10-01T06:45:01.533Z,1.30
2018-10-01T06:46:07.306Z,1.87
2018-10-01T06:47:12.885Z,1.63
2018-10-01T06:48:18.695Z,1.30
2018-10-01T06:49:24.678Z,1.30
2018-10-01T06:50:30.325Z,1.90
2018-10-01T06:51:35.828Z,1.83
2018-10-01T06:52:41.385Z,1.20
2018-10-01T06:53:47.054Z,0.90
2018-10-01T06:54:52.600Z,1.57
2018-10-01T06:55:58.407Z,1.80
2018-10-01T06:57:03.818Z,1.20
2018-10-01T06:58:09.272Z,1.30
2018-10-01T06:59:14.744Z,1.20
2018-10-01T07:00:20.373Z,1.90
2018-10-01T07:01:25.932Z,1.70
2018-10-01T07:02:32.332Z,1.43
2018-10-01T07:03:38.030Z,1.70
2018-10-01T07:04:43.549Z,1.60
2018-10-01T07:05:49.229Z,1.47
2018-10-01T07:06:54.724Z,1.47
2018-10-01T07:08:00.194Z,1.00
2018-10-01T07:09:08.221Z,1.33
2018-10-01T07:10:13.734Z,1.27
2018-10-01T07:11:19.231Z,1.50
2018-10-01T07:12:24.923Z,1.43
2018-10-01T07:13:30.464Z,1.73
2018-10-01T07:14:36.109Z,1.27
2018-10-01T07:15:41.684Z,1.40
2018-10-01T07:16:47.166Z,2.03
2018-10-01T07:17:52.737Z,1.80
2018-10-01T07:18:58.402Z,2.10
2018-10-01T07:20:03.988Z,1.03
2018-10-01T07:21:09.439Z,1.43
2018-10-01T07:22:14.885Z,1.10
2018-10-01T07:23:20.744Z,1.63
2018-10-01T07:24:26.369Z,1.20
2018-10-01T07:25:31.851Z,1.40
2018-10-01T07:26:37.316Z,1.20
2018-10-01T07:27:42.761Z,0.90
2018-10-01T07:28:48.255Z,1.37
2018-10-01T07:29:53.962Z,1.37
2018-10-01T07:30:59.424Z,0.90
2018-10-01T07:32:05.091Z,2.30
2018-10-01T07:33:10.606Z,1.80
2018-10-01T07:34:16.146Z,1.50
2018-10-01T07:35:22.775Z,1.03
2018-10-01T07:36:28.299Z,1.17
2018-10-01T07:37:33.842Z,1.13
2018-10-01T07:38:39.492Z,1.00
2018-10-01T07:39:44.937Z,0.97
2018-10-01T07:40:50.359Z,1.40
2018-10-01T07:41:55.844Z,1.00
2018-10-01T07:43:01.328Z,1.07
2018-10-01T07:44:07.018Z,1.33
2018-10-01T07:45:12.578Z,1.00
2018-10-01T07:46:17.981Z,1.23
2018-10-01T07:47:23.441Z,1.67
2018-10-01T07:48:28.903Z,1.03
2018-10-01T07:49:34.371Z,1.17
2018-10-01T07:50:39.984Z,1.40
2018-10-01T07:51:45.447Z,1.13
2018-10-01T07:52:50.967Z,1.13
2018-10-01T07:53:56.535Z,1.37
2018-10-01T07:55:01.997Z,1.20
2018-10-01T07:56:07.569Z,1.30
2018-10-01T07:57:13.118Z,1.03
2018-10-01T07:58:18.649Z,1.00
2018-10-01T07:59:24.254Z,1.00
2018-10-01T08:00:29.699Z,1.30
2018-10-01T08:01:35.096Z,0.97
2018-10-01T08:02:40.599Z,1.67
2018-10-01T08:03:46.012Z,1.20
2018-10-01T08:04:51.563Z,1.00
2018-10-01T08:05:57.232Z,1.20
2018-10-01T08:07:02.739Z,1.50
2018-10-01T08:08:08.398Z,0.90
2018-10-01T08:09:13.823Z,1.47
2018-10-01T08:10:19.300Z,0.87
2018-10-01T08:11:24.817Z,1.13
2018-10-01T08:12:30.283Z,1.93
2018-10-01T08:13:35.747Z,1.00
2018-10-01T08:14:41.190Z,1.27
2018-10-01T08:15:46.651Z,1.23
2018-10-01T08:16:52.151Z,1.23
2018-10-01T08:17:57.723Z,1.20
2018-10-01T08:19:03.288Z,1.30
2018-10-01T08:20:08.946Z,1.07
2018-10-01T08:21:14.405Z,1.43
2018-10-01T08:22:19.885Z,1.53
2018-10-01T08:23:26.077Z,1.33
2018-10-01T08:24:31.534Z,1.17
2018-10-01T08:25:37.014Z,0.97
2018-10-01T08:26:42.634Z,0.77
2018-10-01T08:27:48.132Z,0.97
2018-10-01T08:28:53.608Z,0.80
2018-10-01T08:29:59.216Z,1.40
2018-10-01T08:31:04.676Z,0.83
2018-10-01T08:32:10.184Z,1.00
2018-10-01T08:33:15.673Z,0.70
2018-10-01T08:34:21.226Z,0.90
2018-10-01T08:35:26.746Z,1.23
2018-10-01T08:36:32.276Z,1.20
2018-10-01T08:37:37.705Z,1.00
2018-10-01T08:38:43.265Z,1.10
2018-10-01T08:39:48.731Z,1.13
2018-10-01T08:40:54.288Z,0.67
2018-10-01T08:41:59.802Z,0.80
2018-10-01T08:43:05.373Z,0.87
2018-10-01T08:44:11.824Z,1.07
2018-10-01T08:45:17.502Z,1.00
2018-10-01T08:46:23.005Z,0.70
2018-10-01T08:47:28.973Z,1.27
2018-10-01T08:48:36.674Z,1.13
2018-10-01T08:49:51.497Z,0.70
2018-10-01T08:51:02.289Z,1.30
2018-10-01T08:52:14.981Z,1.10
2018-10-01T08:55:28.277Z,0.63
2018-10-01T08:56:33.824Z,0.90
2018-10-01T08:57:39.308Z,0.73
2018-10-01T08:58:44.757Z,0.70
2018-10-01T08:59:50.295Z,1.10
2018-10-01T09:00:55.781Z,1.00
2018-10-01T09:02:02.223Z,1.53
2018-10-01T09:03:07.685Z,0.80
2018-10-01T09:04:13.160Z,1.43
2018-10-01T09:05:18.852Z,0.70
2018-10-01T09:06:24.535Z,0.93
2018-10-01T09:07:30.013Z,0.90
2018-10-01T09:08:35.511Z,0.50
2018-10-01T09:09:40.898Z,0.80
2018-10-01T09:10:46.340Z,0.60
2018-10-01T09:11:51.797Z,0.90
2018-10-01T09:12:57.229Z,0.63
2018-10-01T09:14:02.720Z,0.77
2018-10-01T09:15:08.421Z,0.63
2018-10-01T09:16:13.917Z,0.50
2018-10-01T09:17:19.492Z,0.53
2018-10-01T09:18:25.086Z,0.90
2018-10-01T09:19:30.564Z,0.60
2018-10-01T09:20:36.065Z,0.60
2018-10-01T09:21:41.483Z,0.60
2018-10-01T09:22:46.961Z,0.60
2018-10-01T09:23:52.491Z,0.70
2018-10-01T09:24:57.992Z,0.70
2018-10-01T09:26:03.503Z,0.50
2018-10-01T09:27:09.041Z,0.40
2018-10-01T09:28:14.501Z,0.40
2018-10-01T09:29:20.045Z,0.60
2018-10-01T09:30:25.478Z,0.40
2018-10-01T09:31:30.953Z,0.60
2018-10-01T09:32:36.467Z,0.57
2018-10-01T09:33:41.918Z,0.60
2018-10-01T09:34:47.496Z,0.60
2018-10-01T09:35:52.994Z,0.87
2018-10-01T09:36:58.522Z,0.70
2018-10-01T09:38:03.971Z,0.80
2018-10-01T09:39:11.117Z,0.80
2018-10-01T09:40:16.741Z,0.60
2018-10-01T09:41:22.213Z,0.60
2018-10-01T09:42:27.861Z,0.50
2018-10-01T09:43:33.373Z,0.80
2018-10-01T09:44:38.912Z,0.60
2018-10-01T09:45:44.390Z,0.83
2018-10-01T09:46:49.860Z,0.60
2018-10-01T09:47:55.412Z,0.60
2018-10-01T09:49:00.821Z,0.60
2018-10-01T09:50:06.377Z,0.73
2018-10-01T09:51:11.865Z,0.63
2018-10-01T09:52:17.410Z,0.63
2018-10-01T09:53:22.885Z,0.53
2018-10-01T09:54:28.313Z,0.70
2018-10-01T09:55:33.729Z,0.53
2018-10-01T09:56:39.246Z,0.50
2018-10-01T09:57:44.672Z,0.70
2018-10-01T09:58:50.241Z,0.90
2018-10-01T09:59:55.777Z,0.67
2018-10-01T10:01:06.725Z,0.90
2018-10-01T10:02:12.246Z,0.80
2018-10-01T10:03:17.658Z,0.73
2018-10-01T10:04:23.237Z,0.60
2018-10-01T10:05:28.645Z,0.90
2018-10-01T10:06:34.141Z,0.93
2018-10-01T10:07:39.612Z,1.00
2018-10-01T10:08:45.061Z,0.80
2018-10-01T10:09:50.605Z,0.63
2018-10-01T10:10:56.065Z,1.60
2018-10-01T10:12:01.524Z,0.80
2018-10-01T10:13:07.099Z,0.93
2018-10-01T10:14:12.780Z,0.80
2018-10-01T10:15:18.200Z,0.97
2018-10-01T10:16:23.814Z,0.80
2018-10-01T10:17:29.265Z,0.87
2018-10-01T10:18:34.795Z,1.00
2018-10-01T10:19:40.380Z,1.20
2018-10-01T10:20:45.995Z,0.90
2018-10-01T10:21:51.966Z,0.80
2018-10-01T10:22:57.518Z,0.83
2018-10-01T10:24:03.043Z,1.37
2018-10-01T10:25:08.894Z,0.60
2018-10-01T10:26:14.511Z,0.60
2018-10-01T10:27:20.005Z,1.40
2018-10-01T10:28:25.604Z,1.17
2018-10-01T10:29:31.113Z,0.90
2018-10-01T10:30:36.603Z,0.93
2018-10-01T10:31:42.264Z,1.20
2018-10-01T10:32:47.758Z,0.87
2018-10-01T10:33:53.617Z,1.00
2018-10-01T10:34:59.113Z,2.30
2018-10-01T10:36:04.564Z,1.90
2018-10-01T10:37:10.014Z,0.83
2018-10-01T10:38:15.597Z,1.10
2018-10-01T10:39:21.072Z,1.20
2018-10-01T10:40:26.623Z,1.30
2018-10-01T10:41:32.047Z,2.23
2018-10-01T10:42:37.469Z,1.97
2018-10-01T10:43:42.935Z,1.57
2018-10-01T10:44:48.475Z,1.17
2018-10-01T10:45:54.000Z,1.30
2018-10-01T10:46:59.485Z,1.60
2018-10-01T10:48:04.977Z,1.40
2018-10-01T10:49:10.479Z,1.40
2018-10-01T10:50:16.232Z,1.67
2018-10-01T10:51:21.798Z,1.40
2018-10-01T10:52:27.229Z,1.17
2018-10-01T10:53:32.660Z,1.10
2018-10-01T10:54:38.122Z,1.00
2018-10-01T10:55:43.650Z,1.60
2018-10-01T10:56:49.159Z,1.90
2018-10-01T10:57:54.678Z,1.47
2018-10-01T10:59:00.164Z,1.50
2018-10-01T11:00:05.873Z,1.67
2018-10-01T11:01:11.341Z,1.40
2018-10-01T11:02:16.825Z,1.03
2018-10-01T11:03:22.424Z,1.50
2018-10-01T11:04:27.909Z,1.23
2018-10-01T11:05:33.356Z,1.17
2018-10-01T11:06:38.790Z,1.00
2018-10-01T11:07:44.285Z,1.50
2018-10-01T11:08:49.765Z,1.80
2018-10-01T11:09:55.237Z,1.83
2018-10-01T11:11:00.684Z,1.43
2018-10-01T11:12:06.128Z,1.30
2018-10-01T11:13:11.848Z,1.87
2018-10-01T11:14:17.627Z,1.20
2018-10-01T11:15:23.038Z,1.50
2018-10-01T11:16:28.476Z,2.23
2018-10-01T11:17:34.048Z,1.70
2018-10-01T11:18:39.641Z,1.40
2018-10-01T11:19:45.400Z,1.23
2018-10-01T11:20:51.254Z,1.43
2018-10-01T11:21:56.913Z,2.67
2018-10-01T11:23:02.344Z,3.17
2018-10-01T11:24:07.977Z,1.73
2018-10-01T11:25:13.461Z,1.93
2018-10-01T11:26:19.031Z,1.60
2018-10-01T11:27:24.877Z,1.33
2018-10-01T11:28:30.327Z,1.97
2018-10-01T11:29:35.793Z,2.40
2018-10-01T11:30:41.333Z,2.00
2018-10-01T11:31:46.888Z,1.37
2018-10-01T11:32:52.676Z,1.53
2018-10-01T11:33:58.111Z,1.73
2018-10-01T11:35:03.728Z,1.90
2018-10-01T11:36:09.122Z,1.43
2018-10-01T11:37:14.693Z,1.23
2018-10-01T11:38:20.534Z,2.23
2018-10-01T11:39:26.046Z,1.80
2018-10-01T11:40:31.464Z,1.83
2018-10-01T11:41:36.977Z,1.37
2018-10-01T11:42:42.475Z,1.23
2018-10-01T11:43:48.012Z,1.40
2018-10-01T11:44:53.485Z,1.50
2018-10-01T11:45:58.907Z,1.53
2018-10-01T11:47:04.458Z,1.80
2018-10-01T11:48:09.892Z,1.30
2018-10-01T11:49:15.430Z,2.20
2018-10-01T11:50:20.893Z,1.73
2018-10-01T11:51:26.710Z,1.77
2018-10-01T11:52:32.297Z,2.17
2018-10-01T11:53:37.858Z,1.40
2018-10-01T11:54:43.321Z,2.40
2018-10-01T11:55:48.785Z,1.43
2018-10-01T11:56:54.301Z,2.30
2018-10-01T11:57:59.747Z,1.40
2018-10-01T11:59:05.283Z,1.50
2018-10-01T12:00:11.435Z,1.90
2018-10-01T12:01:17.355Z,1.63
2018-10-01T12:02:23.013Z,1.37
2018-10-01T12:03:28.769Z,2.00
2018-10-01T12:04:34.326Z,1.47
2018-10-01T12:05:39.829Z,1.23
2018-10-01T12:06:45.274Z,1.47
2018-10-01T12:07:50.756Z,1.63
2018-10-01T12:08:56.264Z,1.47
2018-10-01T12:10:01.736Z,1.47
2018-10-01T12:11:07.184Z,1.87
2018-10-01T12:12:12.674Z,2.23
2018-10-01T12:13:18.442Z,2.07
2018-10-01T12:14:24.169Z,1.57
2018-10-01T12:15:29.822Z,1.70
2018-10-01T12:16:35.289Z,1.47
2018-10-01T12:17:40.861Z,1.57
2018-10-01T12:18:46.649Z,2.87
2018-10-01T12:19:52.422Z,2.13
2018-10-01T12:20:58.067Z,1.30
2018-10-01T12:22:03.563Z,1.33
2018-10-01T12:23:08.981Z,1.63
2018-10-01T12:24:14.712Z,1.20
2018-10-01T12:25:20.305Z,1.73
2018-10-01T12:26:25.821Z,1.70
2018-10-01T12:27:31.322Z,1.50
2018-10-01T12:28:36.888Z,1.90
2018-10-01T12:29:42.393Z,1.70
2018-10-01T12:30:47.890Z,1.70
2018-10-01T12:31:53.517Z,1.90
2018-10-01T12:32:59.027Z,1.60
2018-10-01T12:34:04.588Z,1.33
2018-10-01T12:35:10.145Z,1.43
2018-10-01T12:36:15.632Z,1.60
2018-10-01T12:37:21.164Z,1.63
2018-10-01T12:38:26.654Z,1.60
2018-10-01T12:39:32.204Z,1.73
2018-10-01T12:40:37.613Z,1.60
2018-10-01T12:41:43.104Z,1.93
2018-10-01T12:42:48.612Z,2.13
2018-10-01T12:43:54.049Z,2.00
2018-10-01T12:44:59.550Z,1.23
2018-10-01T12:46:05.013Z,1.97
2018-10-01T12:47:11.072Z,1.70
2018-10-01T12:48:16.454Z,1.97
2018-10-01T12:49:21.941Z,1.37
2018-10-01T12:50:27.424Z,1.63
2018-10-01T12:51:32.847Z,2.00
2018-10-01T12:52:38.308Z,2.30
2018-10-01T12:53:43.841Z,1.40
2018-10-01T12:54:49.300Z,2.50
2018-10-01T12:55:54.781Z,1.77
2018-10-01T12:57:00.242Z,1.40
2018-10-01T12:58:05.762Z,0.83
2018-10-01T12:59:11.362Z,1.40
2018-10-01T13:00:16.818Z,1.63
2018-10-01T13:01:22.350Z,1.00
2018-10-01T13:02:27.866Z,2.07
2018-10-01T13:03:33.333Z,1.30
2018-10-01T13:04:38.825Z,1.90
2018-10-01T13:05:44.262Z,1.50
2018-10-01T13:06:49.821Z,1.50
2018-10-01T13:07:55.259Z,1.33
2018-10-01T13:09:00.693Z,1.17
2018-10-01T13:10:06.300Z,1.60
2018-10-01T13:11:11.873Z,1.07
2018-10-01T13:12:17.360Z,1.37
2018-10-01T13:13:22.972Z,1.60
2018-10-01T13:14:28.518Z,1.13
2018-10-01T13:15:34.051Z,1.20
2018-10-01T13:16:39.805Z,1.53
2018-10-01T13:17:45.294Z,1.30
2018-10-01T13:18:50.828Z,3.27
2018-10-01T13:19:56.437Z,0.83
2018-10-01T13:21:01.896Z,1.10
2018-10-01T13:22:08.199Z,1.17
2018-10-01T13:23:13.726Z,1.40
2018-10-01T13:24:19.478Z,1.10
2018-10-01T13:25:24.793Z,1.77
2018-10-01T13:26:30.644Z,1.13
2018-10-01T13:27:36.416Z,1.50
2018-10-01T13:28:41.917Z,1.47
2018-10-01T13:29:47.378Z,1.13
2018-10-01T13:30:52.860Z,2.17
2018-10-01T13:31:58.333Z,1.13
2018-10-01T13:33:03.885Z,1.43
2018-10-01T13:34:09.601Z,1.43
2018-10-01T13:35:15.219Z,1.30
2018-10-01T13:36:20.902Z,2.10
2018-10-01T13:37:26.342Z,1.50
2018-10-01T13:38:31.866Z,1.60
2018-10-01T13:39:37.368Z,2.57
2018-10-01T13:40:43.436Z,2.23
2018-10-01T13:41:48.957Z,5.27
2018-10-01T13:42:54.520Z,2.53
2018-10-01T13:44:00.030Z,1.67
2018-10-01T13:45:05.612Z,1.20
2018-10-01T13:46:11.291Z,0.83
2018-10-01T13:47:16.738Z,1.30
2018-10-01T13:48:22.299Z,1.40
2018-10-01T13:49:27.769Z,2.47
2018-10-01T13:50:33.244Z,1.57
2018-10-01T13:51:38.760Z,1.57
2018-10-01T13:52:44.194Z,1.10
2018-10-01T13:53:49.608Z,1.30
2018-10-01T13:54:55.307Z,1.00
2018-10-01T13:56:01.036Z,1.23
2018-10-01T13:57:06.673Z,1.33
2018-10-01T13:58:12.470Z,2.00
2018-10-01T13:59:17.990Z,1.63
2018-10-01T14:00:23.681Z,1.30
2018-10-01T14:01:30.070Z,1.20
2018-10-01T14:02:35.510Z,1.50
2018-10-01T14:03:40.959Z,2.10
2018-10-01T14:04:46.401Z,1.10
2018-10-01T14:05:51.910Z,1.50
2018-10-01T14:06:57.449Z,1.10
2018-10-01T14:08:02.934Z,1.20
2018-10-01T14:09:11.283Z,1.07
2018-10-01T14:10:16.885Z,1.00
2018-10-01T14:11:22.432Z,1.60
2018-10-01T14:12:28.523Z,1.00
2018-10-01T14:13:33.982Z,1.93
2018-10-01T14:14:39.425Z,1.20
2018-10-01T14:15:44.905Z,1.17
2018-10-01T14:16:50.359Z,1.00
2018-10-01T14:17:55.880Z,1.00
2018-10-01T14:19:01.558Z,1.60
2018-10-01T14:20:07.481Z,1.40
2018-10-01T14:21:13.065Z,2.10
2018-10-01T14:22:18.540Z,1.63
2018-10-01T14:23:24.654Z,1.13
2018-10-01T14:24:30.144Z,1.23
2018-10-01T14:25:35.660Z,1.90
2018-10-01T14:26:41.029Z,1.57
2018-10-01T14:27:46.897Z,2.13
2018-10-01T14:28:52.468Z,1.23
2018-10-01T14:29:57.965Z,1.10
2018-10-01T14:31:03.521Z,0.90
2018-10-01T14:32:09.049Z,1.23
2018-10-01T14:33:14.499Z,1.00
2018-10-01T14:34:20.312Z,0.87
2018-10-01T14:35:25.791Z,1.00